createdAt,value
2022-08-30T00:02:47.443Z,99.90
2022-08-30T00:06:50.851Z,99.90
2022-08-30T00:10:54.731Z,99.90
2022-08-30T00:14:58.327Z,99.90
2022-08-30T00:19:03.087Z,99.90
2022-08-30T00:23:07.460Z,99.90
2022-08-30T00:27:10.786Z,99.90
2022-08-30T00:31:15.427Z,99.90
2022-08-30T00:35:21.130Z,99.90
2022-08-30T00:39:24.461Z,99.90
2022-08-30T00:43:32.081Z,99.90
2022-08-30T00:47:35.917Z,99.90
2022-08-30T00:51:42.078Z,99.90
2022-08-30T00:55:46.064Z,99.90
2022-08-30T00:59:51.232Z,99.90
2022-08-30T01:03:56.279Z,99.90
2022-08-30T01:08:01.140Z,99.90
2022-08-30T01:12:06.033Z,99.90
2022-08-30T01:16:09.787Z,99.90
2022-08-30T01:20:15.449Z,99.90
2022-08-30T01:24:21.039Z,99.90
2022-08-30T01:28:27.158Z,99.90
2022-08-30T01:32:31.013Z,99.90
2022-08-30T01:36:35.254Z,99.90
2022-08-30T01:40:40.071Z,99.90
2022-08-30T01:44:43.424Z,99.90
2022-08-30T01:48:53.803Z,99.90
2022-08-30T01:52:57.628Z,99.90
2022-08-30T01:57:03.372Z,99.90
2022-08-30T02:01:10.118Z,99.90
2022-08-30T02:05:13.674Z,99.90
2022-08-30T02:09:17.056Z,99.90
2022-08-30T02:13:21.793Z,99.90
2022-08-30T02:17:25.635Z,99.90
2022-08-30T02:21:29.078Z,99.90
2022-08-30T02:25:32.675Z,99.90
2022-08-30T02:29:37.414Z,99.90
2022-08-30T02:33:40.882Z,99.90
2022-08-30T02:37:44.251Z,99.90
2022-08-30T02:41:47.819Z,99.90
2022-08-30T02:45:53.081Z,99.90
2022-08-30T02:49:56.418Z,99.90
2022-08-30T02:53:59.731Z,99.90
2022-08-30T02:58:03.116Z,99.90
2022-08-30T03:02:07.918Z,99.90
2022-08-30T03:06:11.975Z,99.90
2022-08-30T03:10:16.865Z,99.90
2022-08-30T03:14:20.277Z,99.90
2022-08-30T03:18:26.726Z,99.90
2022-08-30T03:22:30.396Z,99.90
2022-08-30T03:26:33.744Z,99.90
2022-08-30T03:30:37.036Z,99.90
2022-08-30T03:34:41.822Z,99.90
2022-08-30T03:38:45.176Z,99.90
2022-08-30T03:42:48.916Z,99.90
2022-08-30T03:46:52.408Z,99.90
2022-08-30T03:50:57.393Z,99.90
2022-08-30T03:55:01.373Z,99.90
2022-08-30T03:59:04.819Z,99.90
2022-08-30T04:03:09.290Z,99.90
2022-08-30T04:07:14.562Z,99.90
2022-08-30T04:11:18.042Z,99.90
2022-08-30T04:15:21.738Z,99.90
2022-08-30T04:19:25.314Z,99.90
2022-08-30T04:23:30.127Z,99.90
2022-08-30T04:27:33.499Z,99.90
2022-08-30T04:31:36.838Z,99.90
2022-08-30T04:35:42.330Z,99.90
2022-08-30T04:39:47.019Z,99.90
2022-08-30T04:43:50.823Z,99.90
2022-08-30T04:47:54.220Z,99.90
2022-08-30T04:51:59.785Z,99.90
2022-08-30T04:56:09.450Z,99.90
2022-08-30T05:00:15.107Z,99.90
2022-08-30T05:04:18.421Z,99.90
2022-08-30T05:08:24.799Z,99.90
2022-08-30T05:12:30.103Z,99.90
2022-08-30T05:16:33.479Z,99.90
2022-08-30T05:20:37.528Z,99.90
2022-08-30T05:24:40.901Z,99.90
2022-08-30T05:28:46.905Z,99.90
2022-08-30T05:32:53.933Z,99.90
2022-08-30T05:36:57.425Z,99.90
2022-08-30T05:41:02.361Z,99.90
2022-08-30T05:45:11.435Z,99.90
2022-08-30T05:49:14.778Z,99.90
2022-08-30T05:53:18.141Z,99.90
2022-08-30T05:57:21.695Z,99.90
2022-08-30T06:01:28.965Z,99.90
2022-08-30T06:05:32.807Z,99.90
2022-08-30T06:09:38.901Z,99.90
2022-08-30T06:13:42.541Z,99.90
2022-08-30T06:17:47.309Z,99.90
2022-08-30T06:21:51.642Z,99.90
2022-08-30T06:25:55.036Z,99.90
2022-08-30T06:29:58.366Z,99.90
2022-08-30T06:34:03.772Z,99.90
2022-08-30T06:38:07.219Z,99.90
2022-08-30T06:42:10.584Z,99.90
2022-08-30T06:46:17.277Z,99.90
2022-08-30T06:50:22.213Z,99.90
2022-08-30T06:54:25.753Z,99.90
2022-08-30T06:58:29.675Z,99.90
2022-08-30T07:02:33.041Z,99.90
2022-08-30T07:06:38.578Z,99.90
2022-08-30T07:10:42.822Z,99.90
2022-08-30T07:14:46.268Z,99.90
2022-08-30T07:18:54.480Z,99.90
2022-08-30T07:22:59.277Z,99.90
2022-08-30T07:27:02.743Z,99.90
2022-08-30T07:35:11.281Z,99.90
2022-08-30T07:39:15.916Z,99.90
2022-08-30T07:43:19.368Z,99.90
2022-08-30T07:47:25.879Z,99.90
2022-08-30T07:51:29.974Z,99.90
2022-08-30T07:55:34.799Z,99.90
2022-08-30T07:59:38.078Z,99.90
2022-08-30T08:03:43.106Z,99.90
2022-08-30T08:07:48.073Z,99.90
2022-08-30T08:11:53.965Z,99.90
2022-08-30T08:15:58.355Z,99.90
2022-08-30T08:20:02.323Z,99.90
2022-08-30T08:24:07.212Z,99.90
2022-08-30T08:28:14.493Z,99.90
2022-08-30T08:32:22.467Z,99.90
2022-08-30T08:36:26.773Z,99.90
2022-08-30T08:40:34.530Z,99.90
2022-08-30T08:44:54.693Z,98.20
2022-08-30T08:49:02.581Z,96.50
2022-08-30T08:53:46.765Z,91.70
2022-08-30T08:57:52.578Z,90.50
2022-08-30T09:02:03.079Z,84.70
2022-08-30T09:06:16.783Z,80.20
2022-08-30T09:10:40.409Z,80.50
2022-08-30T09:14:49.096Z,80.50
2022-08-30T09:18:54.855Z,77.00
2022-08-30T09:22:59.089Z,78.30
2022-08-30T09:27:16.186Z,75.80
2022-08-30T09:31:24.524Z,75.30
2022-08-30T09:35:36.628Z,74.50
2022-08-30T09:39:41.571Z,78.20
2022-08-30T09:43:44.945Z,73.40
2022-08-30T09:47:48.401Z,75.10
2022-08-30T09:52:00.404Z,72.70
2022-08-30T09:56:10.047Z,72.60
2022-08-30T10:00:18.886Z,71.50
2022-08-30T10:04:31.754Z,70.60
2022-08-30T10:08:52.396Z,72.00
2022-08-30T10:13:07.433Z,79.40
2022-08-30T10:17:17.654Z,78.20
2022-08-30T10:21:27.919Z,73.10
2022-08-30T10:25:38.349Z,73.70
2022-08-30T10:29:47.872Z,71.10
2022-08-30T10:34:00.136Z,69.60
2022-08-30T10:38:09.103Z,68.80
2022-08-30T10:42:21.572Z,68.60
2022-08-30T10:46:35.162Z,66.80
2022-08-30T10:50:43.132Z,66.60
2022-08-30T10:54:52.071Z,66.20
2022-08-30T10:58:59.279Z,64.30
2022-08-30T11:03:36.528Z,64.20
2022-08-30T11:07:48.430Z,64.90
2022-08-30T11:12:18.616Z,63.40
2022-08-30T11:16:37.020Z,61.10
2022-08-30T11:20:44.373Z,59.30
2022-08-30T11:25:11.533Z,62.50
2022-08-30T11:29:33.007Z,61.00
2022-08-30T11:33:46.449Z,58.10
2022-08-30T11:37:50.628Z,59.50
2022-08-30T11:42:14.114Z,61.20
2022-08-30T11:46:20.674Z,57.40
2022-08-30T11:50:29.971Z,57.50
2022-08-30T11:54:40.384Z,57.70
2022-08-30T11:58:49.252Z,58.10
2022-08-30T12:02:59.084Z,54.10
2022-08-30T12:07:05.724Z,55.80
2022-08-30T12:12:02.530Z,57.30
2022-08-30T12:16:07.971Z,56.00
2022-08-30T12:20:26.398Z,57.00
2022-08-30T12:24:36.754Z,57.00
2022-08-30T12:28:42.190Z,54.30
2022-08-30T12:32:50.774Z,50.60
2022-08-30T12:36:58.697Z,53.60
2022-08-30T12:41:05.867Z,52.90
2022-08-30T12:45:14.114Z,51.10
2022-08-30T12:49:18.722Z,53.00
2022-08-30T12:53:29.609Z,51.80
2022-08-30T12:57:40.602Z,51.20
2022-08-30T13:01:44.190Z,49.50
2022-08-30T13:05:53.083Z,53.20
2022-08-30T13:10:07.864Z,50.80
2022-08-30T13:14:37.861Z,50.80
2022-08-30T13:18:41.400Z,49.20
2022-08-30T13:23:03.362Z,54.00
2022-08-30T13:27:09.809Z,55.50
2022-08-30T13:31:14.633Z,54.30
2022-08-30T13:35:18.183Z,52.30
2022-08-30T13:39:21.806Z,52.10
2022-08-30T13:43:25.344Z,51.10
2022-08-30T13:47:34.799Z,48.20
2022-08-30T13:51:38.825Z,47.40
2022-08-30T13:55:43.933Z,48.10
2022-08-30T13:59:49.806Z,48.70
2022-08-30T14:12:52.904Z,56.70
2022-08-30T14:16:56.883Z,55.30
2022-08-30T14:21:01.953Z,58.60
2022-08-30T14:25:06.636Z,65.30
2022-08-30T14:29:14.896Z,70.20
2022-08-30T14:33:18.651Z,70.10
2022-08-30T14:37:23.720Z,73.60
2022-08-30T14:41:29.713Z,68.90
2022-08-30T14:45:33.401Z,66.10
2022-08-30T14:49:38.332Z,72.20
2022-08-30T14:53:43.531Z,74.30
2022-08-30T14:57:48.700Z,74.30
2022-08-30T15:01:52.294Z,76.80
2022-08-30T15:05:55.736Z,79.80
2022-08-30T15:10:00.707Z,81.70
2022-08-30T15:14:05.973Z,78.60
2022-08-30T15:18:10.477Z,82.90
2022-08-30T15:22:14.032Z,80.90
2022-08-30T15:26:20.136Z,74.30
2022-08-30T15:30:23.687Z,76.90
2022-08-30T15:34:28.331Z,79.80
2022-08-30T15:38:32.328Z,82.30
2022-08-30T15:42:37.207Z,83.70
2022-08-30T15:46:43.500Z,81.70
2022-08-30T15:50:47.227Z,83.50
2022-08-30T15:54:50.723Z,83.40
2022-08-30T15:58:55.580Z,80.50
2022-08-30T16:02:59.068Z,82.70
2022-08-30T16:07:02.549Z,85.80
2022-08-30T16:11:09.684Z,85.30
2022-08-30T16:15:15.258Z,85.00
2022-08-30T16:19:19.859Z,85.60
2022-08-30T16:23:23.173Z,88.30
2022-08-30T16:27:27.759Z,87.90
2022-08-30T16:31:33.937Z,86.60
2022-08-30T16:35:37.299Z,87.30
2022-08-30T16:39:41.643Z,90.30
2022-08-30T16:43:53.206Z,91.30
2022-08-30T16:47:58.349Z,91.60
2022-08-30T16:52:01.636Z,92.10
2022-08-30T16:56:07.875Z,93.10
2022-08-30T17:00:13.087Z,93.90
2022-08-30T17:04:19.838Z,94.50
2022-08-30T17:08:23.439Z,96.30
2022-08-30T17:12:27.305Z,97.10
2022-08-30T17:16:31.297Z,97.30
2022-08-30T17:20:36.768Z,98.00
2022-08-30T17:24:41.301Z,98.50
2022-08-30T17:28:44.875Z,99.60
2022-08-30T17:32:50.231Z,99.90
2022-08-30T17:36:57.318Z,99.90
2022-08-30T17:41:04.265Z,99.90
2022-08-30T17:45:11.272Z,99.90
2022-08-30T17:49:15.191Z,99.90
2022-08-30T17:53:20.850Z,99.90
2022-08-30T17:57:24.442Z,99.90
2022-08-30T18:01:28.598Z,99.90
2022-08-30T18:05:32.107Z,99.90
2022-08-30T18:09:39.761Z,99.90
2022-08-30T18:13:43.898Z,99.90
2022-08-30T18:17:49.902Z,99.90
2022-08-30T18:21:54.798Z,99.90
2022-08-30T18:26:16.624Z,99.90
2022-08-30T18:30:24.100Z,99.90
2022-08-30T18:34:30.033Z,99.90
2022-08-30T18:38:42.473Z,99.90
2022-08-30T18:42:49.537Z,99.90
2022-08-30T18:46:56.115Z,99.90
2022-08-30T18:51:00.944Z,99.90
2022-08-30T18:55:05.909Z,99.90
2022-08-30T18:59:11.339Z,99.90
2022-08-30T19:03:15.157Z,99.90
2022-08-30T19:07:20.843Z,99.90
2022-08-30T19:11:24.926Z,99.90
2022-08-30T19:15:31.130Z,99.90
2022-08-30T19:19:36.830Z,99.90
2022-08-30T19:23:55.069Z,99.90
2022-08-30T19:27:59.145Z,99.90
2022-08-30T19:32:04.897Z,99.90
2022-08-30T19:36:09.297Z,99.90
2022-08-30T19:40:16.120Z,99.90
2022-08-30T19:44:20.354Z,99.90
2022-08-30T19:48:29.467Z,99.90
2022-08-30T19:52:36.446Z,99.90
2022-08-30T19:56:40.064Z,99.90
2022-08-30T20:00:54.391Z,99.90
2022-08-30T20:05:04.099Z,99.90
2022-08-30T20:09:10.496Z,99.90
2022-08-30T20:13:14.747Z,99.90
2022-08-30T20:17:18.126Z,99.90
2022-08-30T20:21:22.933Z,99.90
2022-08-30T20:25:27.342Z,99.90
2022-08-30T20:29:31.440Z,99.90
2022-08-30T20:33:37.645Z,99.90
2022-08-30T20:37:43.363Z,99.90
2022-08-30T20:41:46.602Z,99.90
2022-08-30T20:45:52.560Z,99.90
2022-08-30T20:49:55.837Z,99.90
2022-08-30T20:54:00.572Z,99.90
2022-08-30T20:58:03.858Z,99.90
2022-08-30T21:02:08.096Z,99.90
2022-08-30T21:06:12.108Z,99.90
2022-08-30T21:10:22.603Z,99.90
2022-08-30T21:14:26.615Z,99.90
2022-08-30T21:18:33.114Z,99.90
2022-08-30T21:22:38.408Z,99.90
2022-08-30T21:26:43.929Z,99.90
2022-08-30T21:30:47.441Z,99.90
2022-08-30T21:35:07.991Z,99.90
2022-08-30T21:39:13.037Z,99.90
2022-08-30T21:43:17.944Z,99.90
2022-08-30T21:47:23.216Z,99.90
2022-08-30T21:51:27.266Z,99.90
2022-08-30T21:55:30.849Z,99.90
2022-08-30T21:59:35.742Z,99.90
2022-08-30T22:03:39.474Z,99.90
2022-08-30T22:07:42.814Z,99.90
2022-08-30T22:11:46.823Z,99.90
2022-08-30T22:15:51.975Z,99.90
2022-08-30T22:19:55.560Z,99.90
2022-08-30T22:23:59.589Z,99.90
2022-08-30T22:28:04.387Z,99.90
2022-08-30T22:32:09.510Z,99.90
2022-08-30T22:36:15.118Z,99.90
2022-08-30T22:40:18.653Z,99.90
2022-08-30T22:44:21.944Z,99.90
2022-08-30T22:48:26.613Z,99.90
2022-08-30T22:52:29.807Z,99.90
2022-08-30T22:56:34.897Z,99.90
2022-08-30T23:00:48.071Z,99.90
2022-08-30T23:05:01.678Z,99.90
2022-08-30T23:09:06.046Z,99.90
2022-08-30T23:13:09.336Z,99.90
2022-08-30T23:17:12.671Z,99.90
2022-08-30T23:21:20.309Z,99.90
2022-08-30T23:25:41.722Z,99.90
2022-08-30T23:30:04.963Z,99.90
2022-08-30T23:34:25.575Z,99.90
2022-08-30T23:38:47.644Z,99.90
2022-08-30T23:43:08.444Z,99.90
2022-08-30T23:47:29.234Z,99.90
2022-08-30T23:51:53.449Z,99.90
2022-08-30T23:56:15.670Z,99.90
